createdAt,value
2023-05-11T00:00:33.009Z,100865.38
2023-05-11T00:02:59.631Z,100858.44
2023-05-11T00:05:26.239Z,100868.34
2023-05-11T00:07:52.752Z,100862.50
2023-05-11T00:10:19.506Z,100861.53
2023-05-11T00:12:46.154Z,100861.75
2023-05-11T00:15:12.671Z,100855.97
2023-05-11T00:17:39.217Z,100860.63
2023-05-11T00:20:06.354Z,100859.22
2023-05-11T00:22:32.841Z,100853.00
2023-05-11T00:24:59.348Z,100851.50
2023-05-11T00:27:25.999Z,100855.53
2023-05-11T00:29:52.510Z,100860.66
2023-05-11T00:32:19.015Z,100851.00
2023-05-11T00:34:45.842Z,100851.84
2023-05-11T00:37:12.407Z,100852.31
2023-05-11T00:39:40.611Z,100852.06
2023-05-11T00:42:07.426Z,100850.50
2023-05-11T00:44:33.953Z,100846.66
2023-05-11T00:47:00.759Z,100844.75
2023-05-11T00:49:27.712Z,100847.94
2023-05-11T00:51:54.300Z,100849.13
2023-05-11T00:54:21.205Z,100846.88
2023-05-11T00:56:48.488Z,100844.19
2023-05-11T00:59:15.210Z,100843.09
2023-05-11T01:01:41.944Z,100842.44
2023-05-11T01:04:08.701Z,100844.06
2023-05-11T01:06:46.612Z,100845.28
2023-05-11T01:10:01.398Z,100837.13
2023-05-11T01:12:49.717Z,100844.41
2023-05-11T01:15:30.863Z,100841.13
2023-05-11T01:18:03.406Z,100847.56
2023-05-11T01:20:30.275Z,100844.75
2023-05-11T01:23:43.129Z,100843.53
2023-05-11T01:26:19.029Z,100842.47
2023-05-11T01:28:56.244Z,100836.13
2023-05-11T01:31:26.073Z,100845.72
2023-05-11T01:33:58.679Z,100842.97
2023-05-11T01:36:30.128Z,100849.63
2023-05-11T01:39:01.497Z,100849.28
2023-05-11T01:41:28.473Z,100855.31
2023-05-11T01:43:59.822Z,100848.59
2023-05-11T01:46:27.483Z,100855.41
2023-05-11T01:48:56.260Z,100864.81
2023-05-11T01:51:24.206Z,100868.06
2023-05-11T01:53:51.730Z,100861.16
2023-05-11T01:56:20.102Z,100866.59
2023-05-11T01:58:48.208Z,100870.94
2023-05-11T02:01:18.168Z,100878.78
2023-05-11T02:03:46.453Z,100873.34
2023-05-11T02:06:14.418Z,100873.41
2023-05-11T02:08:42.045Z,100882.88
2023-05-11T02:11:10.483Z,100877.81
2023-05-11T02:13:39.244Z,100882.53
2023-05-11T02:16:06.732Z,100874.69
2023-05-11T02:18:34.166Z,100880.97
2023-05-11T02:21:01.438Z,100881.44
2023-05-11T02:23:30.648Z,100881.69
2023-05-11T02:25:57.738Z,100884.06
2023-05-11T02:28:24.449Z,100880.22
2023-05-11T02:30:54.147Z,100878.94
2023-05-11T02:33:26.337Z,100876.56
2023-05-11T02:35:55.525Z,100884.91
2023-05-11T02:38:30.849Z,100886.06
2023-05-11T02:40:58.975Z,100885.38
2023-05-11T02:43:30.736Z,100885.72
2023-05-11T02:46:03.877Z,100882.16
2023-05-11T02:48:39.113Z,100882.16
2023-05-11T02:51:08.672Z,100887.41
2023-05-11T02:53:41.598Z,100884.31
2023-05-11T02:56:08.893Z,100886.72
2023-05-11T02:58:35.856Z,100882.81
2023-05-11T03:01:19.814Z,100892.22
2023-05-11T03:03:46.633Z,100892.25
2023-05-11T03:06:13.447Z,100897.75
2023-05-11T03:08:41.270Z,100895.41
2023-05-11T03:11:09.132Z,100889.13
2023-05-11T03:13:35.796Z,100896.97
2023-05-11T03:16:05.107Z,100898.66
2023-05-11T03:18:33.319Z,100892.78
2023-05-11T03:21:00.749Z,100891.63
2023-05-11T03:23:28.379Z,100888.88
2023-05-11T03:25:55.237Z,100900.31
2023-05-11T03:28:23.004Z,100892.34
2023-05-11T03:31:00.517Z,100899.75
2023-05-11T03:33:27.155Z,100891.50
2023-05-11T03:35:54.134Z,100898.59
2023-05-11T03:38:24.566Z,100892.41
2023-05-11T03:40:52.666Z,100892.78
2023-05-11T03:43:21.061Z,100892.31
2023-05-11T03:45:53.263Z,100894.66
2023-05-11T03:48:20.924Z,100890.53
2023-05-11T03:50:47.789Z,100892.06
2023-05-11T03:53:15.839Z,100890.94
2023-05-11T03:55:42.838Z,100885.78
2023-05-11T03:58:09.608Z,100884.59
2023-05-11T04:00:42.737Z,100886.13
2023-05-11T04:03:09.975Z,100898.75
2023-05-11T04:05:38.084Z,100883.66
2023-05-11T04:08:07.630Z,100889.03
2023-05-11T04:10:34.200Z,100892.97
2023-05-11T04:13:00.702Z,100896.81
2023-05-11T04:15:27.317Z,100895.72
2023-05-11T04:17:53.879Z,100897.97
2023-05-11T04:20:20.790Z,100894.88
2023-05-11T04:22:47.505Z,100895.59
2023-05-11T04:25:14.685Z,100902.31
2023-05-11T04:27:41.249Z,100908.94
2023-05-11T04:30:08.226Z,100912.34
2023-05-11T04:32:35.015Z,100903.38
2023-05-11T04:35:02.126Z,100902.69
2023-05-11T04:37:32.584Z,100908.03
2023-05-11T04:40:00.897Z,100906.09
2023-05-11T04:42:27.430Z,100907.09
2023-05-11T04:44:56.103Z,100914.88
2023-05-11T04:47:22.636Z,100914.13
2023-05-11T04:49:49.226Z,100922.75
2023-05-11T04:52:15.997Z,100924.22
2023-05-11T04:54:45.215Z,100924.63
2023-05-11T04:57:11.758Z,100922.31
2023-05-11T04:59:38.553Z,100928.59
2023-05-11T05:02:05.164Z,100930.59
2023-05-11T05:04:32.969Z,100934.75
2023-05-11T05:07:01.347Z,100933.56
2023-05-11T05:09:27.841Z,100933.16
2023-05-11T05:11:54.362Z,100925.50
2023-05-11T05:14:20.875Z,100930.88
2023-05-11T05:16:47.528Z,100932.69
2023-05-11T05:19:14.206Z,100934.44
2023-05-11T05:21:41.147Z,100931.66
2023-05-11T05:24:11.076Z,100935.38
2023-05-11T05:26:37.777Z,100937.91
2023-05-11T05:29:05.465Z,100932.19
2023-05-11T05:31:32.239Z,100937.59
2023-05-11T05:33:59.138Z,100935.16
2023-05-11T05:36:25.756Z,100936.91
2023-05-11T05:38:52.393Z,100948.19
2023-05-11T05:41:18.961Z,100937.03
2023-05-11T05:43:46.091Z,100944.00
2023-05-11T05:46:14.362Z,100948.91
2023-05-11T05:48:41.716Z,100941.00
2023-05-11T05:51:09.053Z,100953.59
2023-05-11T05:53:35.660Z,100962.81
2023-05-11T05:56:02.189Z,100956.28
2023-05-11T05:58:29.252Z,100956.84
2023-05-11T06:00:56.141Z,100955.38
2023-05-11T06:03:23.457Z,100957.91
2023-05-11T06:05:50.055Z,100959.88
2023-05-11T06:08:16.886Z,100961.03
2023-05-11T06:10:43.559Z,100966.84
2023-05-11T06:13:11.066Z,100960.09
2023-05-11T06:15:41.925Z,100966.19
2023-05-11T06:18:16.936Z,100962.25
2023-05-11T06:20:45.416Z,100972.53
2023-05-11T06:23:13.354Z,100971.06
2023-05-11T06:25:42.434Z,100969.72
2023-05-11T06:28:09.446Z,100969.44
2023-05-11T06:30:37.271Z,100974.72
2023-05-11T06:33:06.182Z,100966.94
2023-05-11T06:35:33.668Z,100967.22
2023-05-11T06:38:00.308Z,100959.59
2023-05-11T06:40:27.912Z,100974.84
2023-05-11T06:42:54.537Z,100971.25
2023-05-11T06:45:21.650Z,100969.03
2023-05-11T06:47:48.418Z,100985.69
2023-05-11T06:50:15.011Z,100977.19
2023-05-11T06:52:41.591Z,100972.53
2023-05-11T06:55:08.513Z,100978.78
2023-05-11T06:57:34.990Z,100964.97
2023-05-11T07:00:01.645Z,100958.47
2023-05-11T07:02:28.549Z,100965.81
2023-05-11T07:04:55.094Z,100970.50
2023-05-11T07:07:22.693Z,100970.38
2023-05-11T07:09:49.216Z,100971.00
2023-05-11T07:12:15.792Z,100971.59
2023-05-11T07:14:42.334Z,100978.91
2023-05-11T07:17:09.277Z,100963.38
2023-05-11T07:19:35.818Z,100966.00
2023-05-11T07:22:02.505Z,100971.88
2023-05-11T07:24:29.083Z,100975.63
2023-05-11T07:26:57.342Z,100966.47
2023-05-11T07:29:23.937Z,100970.97
2023-05-11T07:31:50.508Z,100972.38
2023-05-11T07:34:17.099Z,100973.75
2023-05-11T07:36:43.679Z,100964.63
2023-05-11T07:39:10.774Z,100961.06
2023-05-11T07:41:37.376Z,100973.13
2023-05-11T07:44:04.210Z,100967.28
2023-05-11T07:46:30.841Z,100975.00
2023-05-11T07:49:13.610Z,100975.91
2023-05-11T07:51:42.140Z,100977.16
2023-05-11T07:54:08.793Z,100970.81
2023-05-11T07:56:35.331Z,100972.19
2023-05-11T07:59:01.847Z,100971.91
2023-05-11T08:01:28.443Z,100976.69
2023-05-11T08:03:54.969Z,100972.19
2023-05-11T08:06:21.632Z,100970.94
2023-05-11T08:08:48.136Z,100971.19
2023-05-11T08:11:14.662Z,100965.13
2023-05-11T08:13:41.190Z,100970.22
2023-05-11T08:16:07.803Z,100961.53
2023-05-11T08:18:34.388Z,100970.22
2023-05-11T08:21:00.929Z,100968.34
2023-05-11T08:23:27.446Z,100969.81
2023-05-11T08:25:55.972Z,100961.88
2023-05-11T08:28:22.639Z,100972.44
2023-05-11T08:30:56.472Z,100962.13
2023-05-11T08:35:56.404Z,100965.53
2023-05-11T08:38:22.916Z,100964.59
2023-05-11T08:40:51.328Z,100963.84
2023-05-11T08:43:18.980Z,100968.88
2023-05-11T08:45:49.339Z,100955.00
2023-05-11T08:48:17.903Z,100960.75
2023-05-11T08:50:48.006Z,100961.56
2023-05-11T08:53:14.759Z,100949.56
2023-05-11T08:55:42.739Z,100960.38
2023-05-11T08:58:09.878Z,100959.22
2023-05-11T09:00:36.833Z,100963.09
2023-05-11T09:03:04.459Z,100954.66
2023-05-11T09:05:31.672Z,100959.97
2023-05-11T09:08:04.262Z,100949.34
2023-05-11T09:10:30.795Z,100953.81
2023-05-11T09:12:57.326Z,100950.91
2023-05-11T09:15:23.891Z,100954.50
2023-05-11T09:17:50.454Z,100959.81
2023-05-11T09:20:26.864Z,100968.56
2023-05-11T09:22:54.010Z,100959.75
2023-05-11T09:25:22.073Z,100958.06
2023-05-11T09:27:48.662Z,100956.72
2023-05-11T09:32:54.484Z,100959.16
2023-05-11T09:35:31.322Z,100961.66
2023-05-11T09:38:02.460Z,100965.19
2023-05-11T09:40:34.322Z,100967.19
2023-05-11T09:43:02.136Z,100954.38
2023-05-11T09:45:42.011Z,100950.19
2023-05-11T09:48:21.107Z,100950.50
2023-05-11T09:50:48.738Z,100950.72
2023-05-11T09:53:15.442Z,100946.78
2023-05-11T09:55:51.730Z,100940.50
2023-05-11T09:58:18.267Z,100945.94
2023-05-11T10:00:50.962Z,100936.97
2023-05-11T10:03:17.687Z,100939.50
2023-05-11T10:05:57.091Z,100942.78
2023-05-11T10:08:31.052Z,100937.97
2023-05-11T10:10:57.894Z,100937.19
2023-05-11T10:13:24.779Z,100938.19
2023-05-11T10:15:54.649Z,100937.34
2023-05-11T10:18:21.312Z,100923.53
2023-05-11T10:20:47.828Z,100917.72
2023-05-11T10:23:15.147Z,100946.28
2023-05-11T10:25:42.193Z,100926.72
2023-05-11T10:28:09.487Z,100945.59
2023-05-11T10:30:37.203Z,100931.81
2023-05-11T10:33:04.374Z,100929.03
2023-05-11T10:35:31.629Z,100923.19
2023-05-11T10:37:58.441Z,100921.16
2023-05-11T10:40:25.271Z,100919.84
2023-05-11T10:43:18.306Z,100924.44
2023-05-11T10:46:03.217Z,100916.78
2023-05-11T10:48:39.558Z,100918.84
2023-05-11T10:51:16.959Z,100917.50
2023-05-11T10:53:55.607Z,100925.56
2023-05-11T10:56:44.095Z,100918.31
2023-05-11T10:59:36.107Z,100914.97
2023-05-11T11:02:04.052Z,100906.72
2023-05-11T11:04:48.078Z,100918.81
2023-05-11T11:07:18.244Z,100924.72
2023-05-11T11:10:07.050Z,100917.06
2023-05-11T11:12:36.517Z,100913.69
2023-05-11T11:15:06.278Z,100927.72
2023-05-11T11:17:35.040Z,100933.41
2023-05-11T11:20:08.908Z,100917.81
2023-05-11T11:22:35.561Z,100914.38
2023-05-11T11:25:05.064Z,100907.22
2023-05-11T11:27:40.619Z,100907.09
2023-05-11T11:30:23.350Z,100918.09
2023-05-11T11:32:52.048Z,100908.09
2023-05-11T11:35:40.570Z,100917.56
2023-05-11T11:38:15.223Z,100924.41
2023-05-11T11:43:19.064Z,100915.19
2023-05-11T11:45:59.611Z,100922.47
2023-05-11T11:48:35.506Z,100919.44
2023-05-11T11:51:04.622Z,100924.41
2023-05-11T11:53:44.605Z,100921.47
2023-05-11T11:56:14.141Z,100923.69
2023-05-11T11:58:44.397Z,100915.19
2023-05-11T12:01:21.307Z,100925.50
2023-05-11T12:03:54.518Z,100916.22
2023-05-11T12:06:26.696Z,100928.88
2023-05-11T12:08:53.678Z,100924.06
2023-05-11T12:11:23.105Z,100935.91
2023-05-11T12:13:49.709Z,100919.59
2023-05-11T12:16:17.297Z,100919.88
2023-05-11T12:18:52.968Z,100925.97
2023-05-11T12:21:27.717Z,100929.50
2023-05-11T12:23:55.817Z,100917.94
2023-05-11T12:26:24.249Z,100912.25
2023-05-11T12:28:51.676Z,100926.16
2023-05-11T12:31:18.728Z,100917.34
2023-05-11T12:33:47.025Z,100920.19
2023-05-11T12:36:15.538Z,100928.63
2023-05-11T12:38:46.027Z,100940.97
2023-05-11T12:41:18.929Z,100923.16
2023-05-11T12:43:46.097Z,100920.50
2023-05-11T12:46:13.415Z,100922.94
2023-05-11T12:48:40.533Z,100916.75
2023-05-11T12:51:07.142Z,100925.06
2023-05-11T12:53:37.029Z,100925.06
2023-05-11T12:56:04.682Z,100920.09
2023-05-11T12:58:38.891Z,100938.47
2023-05-11T13:01:06.857Z,100926.53
2023-05-11T13:03:35.290Z,100932.06
2023-05-11T13:06:09.548Z,100934.84
2023-05-11T13:08:46.522Z,100925.81
2023-05-11T13:11:17.392Z,100918.56
2023-05-11T13:13:44.638Z,100920.66
2023-05-11T13:16:11.218Z,100914.22
2023-05-11T13:18:37.765Z,100930.78
2023-05-11T13:21:06.245Z,100919.50
2023-05-11T13:23:32.980Z,100925.34
2023-05-11T13:25:59.473Z,100921.56
2023-05-11T13:28:26.453Z,100915.16
2023-05-11T13:31:00.145Z,100913.44
2023-05-11T13:33:26.898Z,100919.03
2023-05-11T13:35:53.392Z,100917.31
2023-05-11T13:38:19.958Z,100918.31
2023-05-11T13:40:46.682Z,100917.34
2023-05-11T13:43:13.340Z,100930.47
2023-05-11T13:45:42.794Z,100929.69
2023-05-11T13:48:09.367Z,100917.59
2023-05-11T13:50:35.975Z,100922.50
2023-05-11T13:53:02.534Z,100938.16
2023-05-11T13:55:29.558Z,100930.72
2023-05-11T13:57:56.840Z,100928.78
2023-05-11T14:00:23.507Z,100950.94
2023-05-11T14:02:51.469Z,100931.13
2023-05-11T14:05:18.601Z,100924.97
2023-05-11T14:07:48.278Z,100931.63
2023-05-11T14:10:16.801Z,100925.47
2023-05-11T14:12:43.491Z,100923.94
2023-05-11T14:15:10.603Z,100923.56
2023-05-11T14:17:37.434Z,100917.59
2023-05-11T14:20:05.233Z,100933.19
2023-05-11T14:22:31.722Z,100951.69
2023-05-11T14:24:58.244Z,100923.53
2023-05-11T14:27:24.746Z,100929.50
2023-05-11T14:29:52.286Z,100919.88
2023-05-11T14:32:19.463Z,100916.63
2023-05-11T14:34:46.220Z,100912.41
2023-05-11T14:37:13.238Z,100917.69
2023-05-11T14:39:42.659Z,100922.50
2023-05-11T14:42:09.976Z,100912.22
2023-05-11T14:44:36.572Z,100912.22
2023-05-11T14:47:03.118Z,100911.03
2023-05-11T14:49:29.664Z,100917.22
2023-05-11T14:51:57.619Z,100920.09
2023-05-11T14:54:24.152Z,100913.75
2023-05-11T14:56:54.020Z,100911.66
2023-05-11T14:59:21.619Z,100936.25
2023-05-11T15:01:49.395Z,100908.31
2023-05-11T15:04:16.847Z,100915.09
2023-05-11T15:06:43.755Z,100912.56
2023-05-11T15:09:10.606Z,100912.75
2023-05-11T15:11:40.113Z,100911.97
2023-05-11T15:14:10.608Z,100923.66
2023-05-11T15:16:37.482Z,100925.97
2023-05-11T15:19:05.533Z,100926.63
2023-05-11T15:21:32.577Z,100926.50
2023-05-11T15:23:59.127Z,100929.88
2023-05-11T15:26:25.998Z,100937.38
2023-05-11T15:28:52.540Z,100934.47
2023-05-11T15:31:19.324Z,100931.88
2023-05-11T15:33:45.939Z,100927.44
2023-05-11T15:36:13.922Z,100923.81
2023-05-11T15:38:40.770Z,100923.91
2023-05-11T15:41:07.865Z,100937.88
2023-05-11T15:43:34.505Z,100940.25
2023-05-11T15:46:03.478Z,100938.91
2023-05-11T15:48:30.192Z,100938.13
2023-05-11T15:50:58.803Z,100932.47
2023-05-11T15:53:25.421Z,100938.72
2023-05-11T15:55:55.136Z,100951.59
2023-05-11T15:58:22.343Z,100942.41
2023-05-11T16:00:49.148Z,100946.34
2023-05-11T16:03:15.888Z,100952.09
2023-05-11T16:05:42.663Z,100948.09
2023-05-11T16:08:09.212Z,100955.72
2023-05-11T16:10:35.772Z,100951.19
2023-05-11T16:13:02.285Z,100965.47
2023-05-11T16:15:31.187Z,100948.47
2023-05-11T16:17:58.458Z,100961.59
2023-05-11T16:20:25.227Z,100948.91
2023-05-11T16:22:51.759Z,100951.78
2023-05-11T16:25:18.333Z,100956.41
2023-05-11T16:27:44.832Z,100960.16
2023-05-11T16:30:23.117Z,100955.66
2023-05-11T16:32:52.232Z,100960.00
2023-05-11T16:35:18.919Z,100960.53
2023-05-11T16:37:46.713Z,100969.16
2023-05-11T16:40:13.279Z,100955.22
2023-05-11T16:42:39.800Z,100961.41
2023-05-11T16:45:07.214Z,100960.63
2023-05-11T16:47:33.895Z,100964.94
2023-05-11T16:50:00.634Z,100962.75
2023-05-11T16:52:27.210Z,100965.41
2023-05-11T16:54:53.687Z,100968.97
2023-05-11T16:57:20.250Z,100968.84
2023-05-11T16:59:46.775Z,100974.53
2023-05-11T17:02:13.384Z,100970.56
2023-05-11T17:04:39.996Z,100973.81
2023-05-11T17:07:08.608Z,100974.31
2023-05-11T17:09:35.098Z,100965.34
2023-05-11T17:12:02.764Z,100983.44
2023-05-11T17:14:29.270Z,100981.28
2023-05-11T17:16:55.785Z,100981.78
2023-05-11T17:19:22.299Z,100985.03
2023-05-11T17:21:48.954Z,100987.66
2023-05-11T17:24:15.487Z,100983.34
2023-05-11T17:26:47.841Z,100990.44
2023-05-11T17:29:16.497Z,100987.84
2023-05-11T17:31:43.347Z,100992.28
2023-05-11T17:34:10.395Z,100981.66
2023-05-11T17:36:37.169Z,100992.00
2023-05-11T17:39:03.789Z,101000.38
2023-05-11T17:41:30.308Z,100991.09
2023-05-11T17:43:57.245Z,100993.44
2023-05-11T17:46:23.792Z,100998.84
2023-05-11T17:48:50.328Z,101001.94
2023-05-11T17:51:16.881Z,101003.16
2023-05-11T17:53:43.365Z,101002.84
2023-05-11T17:56:11.785Z,101007.47
2023-05-11T17:58:38.421Z,101013.50
2023-05-11T18:01:09.097Z,101014.59
2023-05-11T18:03:36.070Z,101021.41
2023-05-11T18:06:02.669Z,101022.63
2023-05-11T18:08:29.167Z,101019.16
2023-05-11T18:10:55.733Z,101022.91
2023-05-11T18:13:22.731Z,101025.38
2023-05-11T18:15:49.471Z,101027.53
2023-05-11T18:18:16.345Z,101033.38
2023-05-11T18:20:45.716Z,101028.13
2023-05-11T18:23:13.170Z,101036.63
2023-05-11T18:25:39.940Z,101033.34
2023-05-11T18:28:06.507Z,101032.25
2023-05-11T18:30:33.578Z,101042.94
2023-05-11T18:33:00.244Z,101041.38
2023-05-11T18:35:26.830Z,101047.84
2023-05-11T18:37:54.232Z,101048.44
2023-05-11T18:40:21.156Z,101050.13
2023-05-11T18:42:47.910Z,101058.94
2023-05-11T18:45:14.783Z,101061.72
2023-05-11T18:47:46.113Z,101063.41
2023-05-11T18:50:13.175Z,101057.97
2023-05-11T18:52:39.750Z,101063.81
2023-05-11T18:55:06.724Z,101061.50
2023-05-11T18:57:34.413Z,101066.41
2023-05-11T19:00:01.227Z,101063.19
2023-05-11T19:02:28.016Z,101069.97
2023-05-11T19:04:54.732Z,101073.75
2023-05-11T19:07:21.330Z,101078.13
2023-05-11T19:09:47.871Z,101080.56
2023-05-11T19:12:14.491Z,101079.16
2023-05-11T19:14:41.213Z,101085.03
2023-05-11T19:17:07.783Z,101089.97
2023-05-11T19:19:34.367Z,101094.72
2023-05-11T19:22:01.042Z,101096.72
2023-05-11T19:24:28.222Z,101101.97
2023-05-11T19:27:05.994Z,101109.50
2023-05-11T19:29:34.890Z,101104.88
2023-05-11T19:32:01.762Z,101107.78
2023-05-11T19:34:28.549Z,101111.81
2023-05-11T19:36:55.101Z,101113.59
2023-05-11T19:39:21.578Z,101110.50
2023-05-11T19:41:48.093Z,101118.38
2023-05-11T19:44:14.586Z,101118.53
2023-05-11T19:46:46.313Z,101115.75
2023-05-11T19:49:13.980Z,101123.41
2023-05-11T19:51:40.509Z,101129.56
2023-05-11T19:54:07.010Z,101121.53
2023-05-11T19:56:33.887Z,101128.00
2023-05-11T19:59:00.615Z,101127.03
2023-05-11T20:01:27.253Z,101133.81
2023-05-11T20:03:53.967Z,101138.59
2023-05-11T20:06:20.592Z,101139.81
2023-05-11T20:08:48.784Z,101136.38
2023-05-11T20:11:15.583Z,101142.38
2023-05-11T20:13:43.959Z,101144.84
2023-05-11T20:16:10.688Z,101143.28
2023-05-11T20:18:37.486Z,101140.19
2023-05-11T20:21:04.316Z,101145.72
2023-05-11T20:23:30.883Z,101137.97
2023-05-11T20:25:57.431Z,101141.19
2023-05-11T20:28:27.227Z,101146.75
2023-05-11T20:30:55.971Z,101141.94
2023-05-11T20:35:53.370Z,101146.19
2023-05-11T20:38:20.260Z,101146.53
2023-05-11T20:40:46.805Z,101150.97
2023-05-11T20:43:14.782Z,101140.00
2023-05-11T20:45:41.803Z,101149.41
2023-05-11T20:48:08.551Z,101155.22
2023-05-11T20:50:35.111Z,101143.44
2023-05-11T20:53:01.673Z,101156.22
2023-05-11T20:55:28.835Z,101157.44
2023-05-11T20:57:55.396Z,101156.34
2023-05-11T21:00:22.048Z,101156.47
2023-05-11T21:02:48.915Z,101161.34
2023-05-11T21:05:15.631Z,101169.66
2023-05-11T21:07:42.144Z,101167.00
2023-05-11T21:10:11.046Z,101161.22
2023-05-11T21:12:37.608Z,101161.13
2023-05-11T21:15:04.467Z,101164.69
2023-05-11T21:17:31.108Z,101151.28
2023-05-11T21:19:57.654Z,101161.13
2023-05-11T21:22:24.217Z,101160.03
2023-05-11T21:24:50.751Z,101165.22
2023-05-11T21:27:17.276Z,101163.38
2023-05-11T21:29:43.880Z,101157.03
2023-05-11T21:32:10.542Z,101164.72
2023-05-11T21:34:37.097Z,101158.06
2023-05-11T21:37:03.664Z,101169.53
2023-05-11T21:39:30.172Z,101169.13
2023-05-11T21:41:56.892Z,101165.22
2023-05-11T21:44:23.486Z,101173.97
2023-05-11T21:46:50.505Z,101174.41
2023-05-11T21:49:17.189Z,101169.41
2023-05-11T21:51:43.693Z,101170.22
2023-05-11T21:54:10.270Z,101179.41
2023-05-11T21:56:36.922Z,101176.97
2023-05-11T21:59:03.547Z,101180.31
2023-05-11T22:01:30.062Z,101184.41
2023-05-11T22:03:56.767Z,101190.81
2023-05-11T22:06:23.403Z,101179.72
2023-05-11T22:08:49.917Z,101185.06
2023-05-11T22:11:16.450Z,101185.13
2023-05-11T22:13:42.967Z,101193.66
2023-05-11T22:16:09.526Z,101185.13
2023-05-11T22:18:36.103Z,101191.22
2023-05-11T22:21:02.866Z,101192.44
2023-05-11T22:23:29.401Z,101189.03
2023-05-11T22:25:55.914Z,101193.88
2023-05-11T22:28:22.928Z,101196.97
2023-05-11T22:30:49.495Z,101190.69
2023-05-11T22:33:16.026Z,101190.00
2023-05-11T22:35:42.558Z,101190.84
2023-05-11T22:38:09.062Z,101188.84
2023-05-11T22:40:35.586Z,101190.75
2023-05-11T22:43:03.231Z,101196.09
2023-05-11T22:45:29.790Z,101211.06
2023-05-11T22:47:56.289Z,101202.53
2023-05-11T22:50:22.820Z,101213.00
2023-05-11T22:52:49.307Z,101200.81
2023-05-11T22:55:15.897Z,101207.75
2023-05-11T22:57:42.425Z,101212.94
2023-05-11T23:00:12.225Z,101207.94
2023-05-11T23:02:38.782Z,101211.03
2023-05-11T23:05:05.846Z,101218.22
2023-05-11T23:07:32.388Z,101217.19
2023-05-11T23:09:58.990Z,101217.72
2023-05-11T23:12:25.482Z,101218.22
2023-05-11T23:14:52.381Z,101213.25
2023-05-11T23:17:18.922Z,101216.53
2023-05-11T23:19:45.446Z,101216.16
2023-05-11T23:22:11.989Z,101220.16
2023-05-11T23:24:38.468Z,101219.81
2023-05-11T23:27:05.190Z,101217.13
2023-05-11T23:29:31.903Z,101214.41
2023-05-11T23:31:58.417Z,101211.47
2023-05-11T23:34:24.912Z,101210.78
2023-05-11T23:36:51.510Z,101213.34
2023-05-11T23:39:18.007Z,101214.94
2023-05-11T23:41:44.673Z,101219.69
2023-05-11T23:44:11.680Z,101210.75
2023-05-11T23:46:38.615Z,101210.00
2023-05-11T23:49:05.153Z,101208.88
2023-05-11T23:51:32.377Z,101207.38
2023-05-11T23:53:59.617Z,101206.25
2023-05-11T23:56:26.192Z,101203.94
2023-05-11T23:58:52.741Z,101206.16
